sensor_id;sensor_type;location;lat;lon;timestamp;P1;durP1;ratioP1;P2;durP2;ratioP2
20697;SDS011;10508;50.956;4.640;2023-03-12T00:01:46;5.70;;;3.13;;
20697;SDS011;10508;50.956;4.640;2023-03-12T00:04:12;8.23;;;2.92;;
20697;SDS011;10508;50.956;4.640;2023-03-12T00:06:56;10.35;;;3.17;;
20697;SDS011;10508;50.956;4.640;2023-03-12T00:09:22;6.85;;;3.03;;
20697;SDS011;10508;50.956;4.640;2023-03-12T00:12:06;5.85;;;2.60;;
20697;SDS011;10508;50.956;4.640;2023-03-12T00:14:32;7.78;;;2.83;;
20697;SDS011;10508;50.956;4.640;2023-03-12T00:16:58;6.50;;;2.90;;
20697;SDS011;10508;50.956;4.640;2023-03-12T00:19:24;16.40;;;4.45;;
20697;SDS011;10508;50.956;4.640;2023-03-12T00:21:50;10.23;;;3.95;;
20697;SDS011;10508;50.956;4.640;2023-03-12T00:24:15;10.63;;;3.30;;
20697;SDS011;10508;50.956;4.640;2023-03-12T00:26:41;15.15;;;3.88;;
20697;SDS011;10508;50.956;4.640;2023-03-12T00:29:07;9.77;;;3.50;;
20697;SDS011;10508;50.956;4.640;2023-03-12T00:31:33;11.68;;;3.67;;
20697;SDS011;10508;50.956;4.640;2023-03-12T00:33:59;11.40;;;3.53;;
20697;SDS011;10508;50.956;4.640;2023-03-12T00:36:27;10.65;;;3.22;;
20697;SDS011;10508;50.956;4.640;2023-03-12T00:38:54;11.48;;;4.32;;
20697;SDS011;10508;50.956;4.640;2023-03-12T00:41:21;10.50;;;3.55;;
20697;SDS011;10508;50.956;4.640;2023-03-12T00:43:49;13.32;;;4.05;;
20697;SDS011;10508;50.956;4.640;2023-03-12T00:46:15;6.20;;;3.38;;
20697;SDS011;10508;50.956;4.640;2023-03-12T00:48:41;13.98;;;3.70;;
20697;SDS011;10508;50.956;4.640;2023-03-12T00:51:07;5.63;;;2.97;;
20697;SDS011;10508;50.956;4.640;2023-03-12T00:53:34;9.27;;;3.25;;
20697;SDS011;10508;50.956;4.640;2023-03-12T00:56:12;5.03;;;2.72;;
20697;SDS011;10508;50.956;4.640;2023-03-12T00:58:38;6.80;;;2.33;;
20697;SDS011;10508;50.956;4.640;2023-03-12T01:01:06;8.80;;;3.42;;
20697;SDS011;10508;50.956;4.640;2023-03-12T01:03:32;14.40;;;3.88;;
20697;SDS011;10508;50.956;4.640;2023-03-12T01:05:58;7.68;;;3.35;;
20697;SDS011;10508;50.956;4.640;2023-03-12T01:08:24;8.15;;;3.45;;
20697;SDS011;10508;50.956;4.640;2023-03-12T01:10:50;8.27;;;3.28;;
20697;SDS011;10508;50.956;4.640;2023-03-12T01:13:16;7.97;;;3.60;;
20697;SDS011;10508;50.956;4.640;2023-03-12T01:15:42;8.35;;;2.63;;
20697;SDS011;10508;50.956;4.640;2023-03-12T01:18:07;10.60;;;3.17;;
20697;SDS011;10508;50.956;4.640;2023-03-12T01:20:33;9.25;;;3.33;;
20697;SDS011;10508;50.956;4.640;2023-03-12T01:22:59;8.07;;;2.97;;
20697;SDS011;10508;50.956;4.640;2023-03-12T01:25:24;5.30;;;2.55;;
20697;SDS011;10508;50.956;4.640;2023-03-12T01:27:50;11.07;;;3.42;;
20697;SDS011;10508;50.956;4.640;2023-03-12T01:30:16;7.30;;;2.80;;
20697;SDS011;10508;50.956;4.640;2023-03-12T01:32:42;7.50;;;2.35;;
20697;SDS011;10508;50.956;4.640;2023-03-12T01:35:08;6.82;;;2.88;;
20697;SDS011;10508;50.956;4.640;2023-03-12T01:37:34;10.63;;;3.42;;
20697;SDS011;10508;50.956;4.640;2023-03-12T01:40:00;9.45;;;3.70;;
20697;SDS011;10508;50.956;4.640;2023-03-12T01:42:26;9.13;;;2.88;;
20697;SDS011;10508;50.956;4.640;2023-03-12T01:44:53;10.07;;;2.70;;
20697;SDS011;10508;50.956;4.640;2023-03-12T01:47:21;9.02;;;2.75;;
20697;SDS011;10508;50.956;4.640;2023-03-12T01:49:59;12.80;;;3.78;;
20697;SDS011;10508;50.956;4.640;2023-03-12T01:52:32;6.57;;;2.65;;
20697;SDS011;10508;50.956;4.640;2023-03-12T01:55:04;4.30;;;2.42;;
20697;SDS011;10508;50.956;4.640;2023-03-12T02:00:30;12.98;;;2.63;;
20697;SDS011;10508;50.956;4.640;2023-03-12T02:02:59;6.20;;;2.20;;
20697;SDS011;10508;50.956;4.640;2023-03-12T02:08:08;9.57;;;1.88;;
20697;SDS011;10508;50.956;4.640;2023-03-12T02:10:35;5.75;;;2.17;;
20697;SDS011;10508;50.956;4.640;2023-03-12T02:13:01;7.32;;;2.10;;
20697;SDS011;10508;50.956;4.640;2023-03-12T02:15:26;10.20;;;2.42;;
20697;SDS011;10508;50.956;4.640;2023-03-12T02:17:52;7.55;;;1.90;;
20697;SDS011;10508;50.956;4.640;2023-03-12T02:22:58;7.50;;;2.30;;
20697;SDS011;10508;50.956;4.640;2023-03-12T02:28:07;4.70;;;1.95;;
20697;SDS011;10508;50.956;4.640;2023-03-12T02:30:36;5.35;;;2.20;;
20697;SDS011;10508;50.956;4.640;2023-03-12T02:33:23;7.13;;;2.60;;
20697;SDS011;10508;50.956;4.640;2023-03-12T02:35:50;6.13;;;1.58;;
20697;SDS011;10508;50.956;4.640;2023-03-12T02:41:36;8.75;;;1.88;;
20697;SDS011;10508;50.956;4.640;2023-03-12T02:44:09;2.95;;;1.45;;
20697;SDS011;10508;50.956;4.640;2023-03-12T02:46:48;7.93;;;1.58;;
20697;SDS011;10508;50.956;4.640;2023-03-12T02:49:16;4.13;;;1.60;;
20697;SDS011;10508;50.956;4.640;2023-03-12T02:51:44;10.55;;;2.03;;
20697;SDS011;10508;50.956;4.640;2023-03-12T02:54:11;4.68;;;1.63;;
20697;SDS011;10508;50.956;4.640;2023-03-12T02:56:39;6.88;;;1.70;;
20697;SDS011;10508;50.956;4.640;2023-03-12T02:59:05;3.25;;;1.70;;
20697;SDS011;10508;50.956;4.640;2023-03-12T03:01:31;7.90;;;1.10;;
20697;SDS011;10508;50.956;4.640;2023-03-12T03:04:03;2.58;;;1.42;;
20697;SDS011;10508;50.956;4.640;2023-03-12T03:06:30;3.85;;;1.73;;
20697;SDS011;10508;50.956;4.640;2023-03-12T03:08:56;10.07;;;1.70;;
20697;SDS011;10508;50.956;4.640;2023-03-12T03:11:22;3.97;;;1.42;;
20697;SDS011;10508;50.956;4.640;2023-03-12T03:13:49;5.30;;;1.42;;
20697;SDS011;10508;50.956;4.640;2023-03-12T03:16:15;3.60;;;1.63;;
20697;SDS011;10508;50.956;4.640;2023-03-12T03:18:41;5.93;;;1.90;;
20697;SDS011;10508;50.956;4.640;2023-03-12T03:21:08;7.20;;;2.40;;
20697;SDS011;10508;50.956;4.640;2023-03-12T03:23:34;9.80;;;2.13;;
20697;SDS011;10508;50.956;4.640;2023-03-12T03:26:01;6.90;;;1.90;;
20697;SDS011;10508;50.956;4.640;2023-03-12T03:28:28;5.40;;;1.50;;
20697;SDS011;10508;50.956;4.640;2023-03-12T03:30:55;5.53;;;2.30;;
20697;SDS011;10508;50.956;4.640;2023-03-12T03:33:24;7.90;;;1.80;;
20697;SDS011;10508;50.956;4.640;2023-03-12T03:35:50;7.45;;;2.08;;
20697;SDS011;10508;50.956;4.640;2023-03-12T03:38:16;5.47;;;2.03;;
20697;SDS011;10508;50.956;4.640;2023-03-12T03:40:41;11.93;;;2.17;;
20697;SDS011;10508;50.956;4.640;2023-03-12T03:43:07;4.03;;;1.90;;
20697;SDS011;10508;50.956;4.640;2023-03-12T03:45:33;7.10;;;1.85;;
20697;SDS011;10508;50.956;4.640;2023-03-12T03:47:59;2.97;;;1.58;;
20697;SDS011;10508;50.956;4.640;2023-03-12T03:50:24;5.05;;;2.10;;
20697;SDS011;10508;50.956;4.640;2023-03-12T03:52:50;3.60;;;1.63;;
20697;SDS011;10508;50.956;4.640;2023-03-12T03:55:16;11.50;;;1.98;;
20697;SDS011;10508;50.956;4.640;2023-03-12T03:57:41;5.22;;;1.75;;
20697;SDS011;10508;50.956;4.640;2023-03-12T04:00:07;5.53;;;1.90;;
20697;SDS011;10508;50.956;4.640;2023-03-12T04:02:37;4.50;;;2.15;;
20697;SDS011;10508;50.956;4.640;2023-03-12T04:05:03;5.03;;;1.60;;
20697;SDS011;10508;50.956;4.640;2023-03-12T04:07:29;7.70;;;2.00;;
20697;SDS011;10508;50.956;4.640;2023-03-12T04:09:56;5.18;;;2.10;;
20697;SDS011;10508;50.956;4.640;2023-03-12T04:12:22;6.70;;;1.77;;
20697;SDS011;10508;50.956;4.640;2023-03-12T04:14:50;3.67;;;1.42;;
20697;SDS011;10508;50.956;4.640;2023-03-12T04:17:16;9.50;;;2.25;;
20697;SDS011;10508;50.956;4.640;2023-03-12T04:19:42;10.63;;;2.05;;
20697;SDS011;10508;50.956;4.640;2023-03-12T04:22:08;3.92;;;1.77;;
20697;SDS011;10508;50.956;4.640;2023-03-12T04:24:34;3.25;;;1.65;;
20697;SDS011;10508;50.956;4.640;2023-03-12T04:26:59;3.15;;;1.85;;
20697;SDS011;10508;50.956;4.640;2023-03-12T04:29:25;7.30;;;1.90;;
20697;SDS011;10508;50.956;4.640;2023-03-12T04:31:51;4.30;;;1.90;;
20697;SDS011;10508;50.956;4.640;2023-03-12T04:34:17;5.03;;;2.15;;
20697;SDS011;10508;50.956;4.640;2023-03-12T04:36:52;4.50;;;2.00;;
20697;SDS011;10508;50.956;4.640;2023-03-12T04:39:17;8.48;;;1.98;;
20697;SDS011;10508;50.956;4.640;2023-03-12T04:41:44;5.95;;;1.80;;
20697;SDS011;10508;50.956;4.640;2023-03-12T04:44:10;9.93;;;1.95;;
20697;SDS011;10508;50.956;4.640;2023-03-12T04:46:36;4.95;;;1.42;;
20697;SDS011;10508;50.956;4.640;2023-03-12T04:49:02;3.80;;;2.22;;
20697;SDS011;10508;50.956;4.640;2023-03-12T04:51:29;8.00;;;1.92;;
20697;SDS011;10508;50.956;4.640;2023-03-12T04:53:55;3.88;;;1.80;;
20697;SDS011;10508;50.956;4.640;2023-03-12T04:56:22;7.10;;;2.22;;
20697;SDS011;10508;50.956;4.640;2023-03-12T04:58:48;8.82;;;2.30;;
20697;SDS011;10508;50.956;4.640;2023-03-12T05:01:18;6.25;;;1.80;;
20697;SDS011;10508;50.956;4.640;2023-03-12T05:03:48;7.82;;;2.45;;
20697;SDS011;10508;50.956;4.640;2023-03-12T05:06:13;8.15;;;2.13;;
20697;SDS011;10508;50.956;4.640;2023-03-12T05:08:39;14.00;;;2.38;;
20697;SDS011;10508;50.956;4.640;2023-03-12T05:11:05;4.00;;;1.63;;
20697;SDS011;10508;50.956;4.640;2023-03-12T05:13:31;10.30;;;2.13;;
20697;SDS011;10508;50.956;4.640;2023-03-12T05:15:56;7.68;;;2.13;;
20697;SDS011;10508;50.956;4.640;2023-03-12T05:18:22;15.98;;;2.78;;
20697;SDS011;10508;50.956;4.640;2023-03-12T05:20:58;2.50;;;1.80;;
20697;SDS011;10508;50.956;4.640;2023-03-12T05:23:27;4.50;;;2.25;;
20697;SDS011;10508;50.956;4.640;2023-03-12T05:25:53;5.75;;;2.72;;
20697;SDS011;10508;50.956;4.640;2023-03-12T05:28:19;5.75;;;2.65;;
20697;SDS011;10508;50.956;4.640;2023-03-12T05:30:45;5.72;;;2.30;;
20697;SDS011;10508;50.956;4.640;2023-03-12T05:33:11;4.55;;;2.05;;
20697;SDS011;10508;50.956;4.640;2023-03-12T05:35:37;5.47;;;2.28;;
20697;SDS011;10508;50.956;4.640;2023-03-12T05:38:02;3.03;;;1.83;;
20697;SDS011;10508;50.956;4.640;2023-03-12T05:40:28;6.85;;;2.35;;
20697;SDS011;10508;50.956;4.640;2023-03-12T05:42:54;7.30;;;2.50;;
20697;SDS011;10508;50.956;4.640;2023-03-12T05:45:20;7.10;;;2.45;;
20697;SDS011;10508;50.956;4.640;2023-03-12T05:47:46;5.53;;;2.60;;
20697;SDS011;10508;50.956;4.640;2023-03-12T05:50:11;8.13;;;2.80;;
20697;SDS011;10508;50.956;4.640;2023-03-12T05:52:37;5.18;;;2.28;;
20697;SDS011;10508;50.956;4.640;2023-03-12T05:55:03;6.53;;;2.72;;
20697;SDS011;10508;50.956;4.640;2023-03-12T05:57:29;8.38;;;3.00;;
20697;SDS011;10508;50.956;4.640;2023-03-12T05:59:55;4.93;;;2.60;;
20697;SDS011;10508;50.956;4.640;2023-03-12T06:02:20;8.23;;;3.33;;
20697;SDS011;10508;50.956;4.640;2023-03-12T06:04:46;8.82;;;3.10;;
20697;SDS011;10508;50.956;4.640;2023-03-12T06:07:11;6.85;;;2.97;;
20697;SDS011;10508;50.956;4.640;2023-03-12T06:09:37;5.25;;;2.80;;
20697;SDS011;10508;50.956;4.640;2023-03-12T06:12:03;8.73;;;3.33;;
20697;SDS011;10508;50.956;4.640;2023-03-12T06:14:29;9.52;;;3.38;;
20697;SDS011;10508;50.956;4.640;2023-03-12T06:16:54;10.73;;;3.58;;
20697;SDS011;10508;50.956;4.640;2023-03-12T06:19:20;11.63;;;3.78;;
20697;SDS011;10508;50.956;4.640;2023-03-12T06:21:46;13.13;;;3.88;;
20697;SDS011;10508;50.956;4.640;2023-03-12T06:24:11;7.07;;;3.75;;
20697;SDS011;10508;50.956;4.640;2023-03-12T06:26:37;8.98;;;4.80;;
20697;SDS011;10508;50.956;4.640;2023-03-12T06:29:04;7.95;;;3.53;;
20697;SDS011;10508;50.956;4.640;2023-03-12T06:31:30;10.02;;;4.28;;
20697;SDS011;10508;50.956;4.640;2023-03-12T06:33:55;10.10;;;4.03;;
20697;SDS011;10508;50.956;4.640;2023-03-12T06:36:21;6.25;;;3.60;;
20697;SDS011;10508;50.956;4.640;2023-03-12T06:38:48;10.38;;;4.38;;
20697;SDS011;10508;50.956;4.640;2023-03-12T06:41:14;14.07;;;4.60;;
20697;SDS011;10508;50.956;4.640;2023-03-12T06:43:42;9.45;;;4.45;;
20697;SDS011;10508;50.956;4.640;2023-03-12T06:46:10;9.82;;;4.40;;
20697;SDS011;10508;50.956;4.640;2023-03-12T06:48:38;8.00;;;4.20;;
20697;SDS011;10508;50.956;4.640;2023-03-12T06:51:06;8.00;;;4.07;;
20697;SDS011;10508;50.956;4.640;2023-03-12T06:53:33;9.50;;;4.88;;
20697;SDS011;10508;50.956;4.640;2023-03-12T06:55:59;11.73;;;4.93;;
20697;SDS011;10508;50.956;4.640;2023-03-12T06:58:24;12.63;;;5.07;;
20697;SDS011;10508;50.956;4.640;2023-03-12T07:00:50;7.55;;;4.60;;
20697;SDS011;10508;50.956;4.640;2023-03-12T07:03:18;9.25;;;5.05;;
20697;SDS011;10508;50.956;4.640;2023-03-12T07:05:44;9.57;;;4.57;;
20697;SDS011;10508;50.956;4.640;2023-03-12T07:08:11;11.07;;;4.65;;
20697;SDS011;10508;50.956;4.640;2023-03-12T07:10:37;10.70;;;4.22;;
20697;SDS011;10508;50.956;4.640;2023-03-12T07:13:03;13.23;;;5.95;;
20697;SDS011;10508;50.956;4.640;2023-03-12T07:15:47;10.63;;;5.13;;
20697;SDS011;10508;50.956;4.640;2023-03-12T07:18:13;8.52;;;4.60;;
20697;SDS011;10508;50.956;4.640;2023-03-12T07:20:40;10.02;;;4.70;;
20697;SDS011;10508;50.956;4.640;2023-03-12T07:23:07;10.70;;;5.25;;
20697;SDS011;10508;50.956;4.640;2023-03-12T07:25:34;12.13;;;5.32;;
20697;SDS011;10508;50.956;4.640;2023-03-12T07:28:01;12.63;;;4.82;;
20697;SDS011;10508;50.956;4.640;2023-03-12T07:30:27;11.82;;;5.32;;
20697;SDS011;10508;50.956;4.640;2023-03-12T07:32:57;12.98;;;5.15;;
20697;SDS011;10508;50.956;4.640;2023-03-12T07:35:42;13.40;;;5.55;;
20697;SDS011;10508;50.956;4.640;2023-03-12T07:38:08;17.05;;;5.80;;
20697;SDS011;10508;50.956;4.640;2023-03-12T07:40:33;14.52;;;5.57;;
20697;SDS011;10508;50.956;4.640;2023-03-12T07:43:00;15.63;;;5.75;;
20697;SDS011;10508;50.956;4.640;2023-03-12T07:45:26;14.27;;;6.13;;
20697;SDS011;10508;50.956;4.640;2023-03-12T07:47:51;12.45;;;5.63;;
20697;SDS011;10508;50.956;4.640;2023-03-12T07:50:17;11.63;;;5.72;;
20697;SDS011;10508;50.956;4.640;2023-03-12T07:52:44;11.55;;;5.65;;
20697;SDS011;10508;50.956;4.640;2023-03-12T07:55:10;17.65;;;5.78;;
20697;SDS011;10508;50.956;4.640;2023-03-12T07:57:42;19.67;;;6.13;;
20697;SDS011;10508;50.956;4.640;2023-03-12T08:00:10;15.80;;;6.32;;
20697;SDS011;10508;50.956;4.640;2023-03-12T08:02:37;17.98;;;6.20;;
20697;SDS011;10508;50.956;4.640;2023-03-12T08:05:15;18.10;;;6.07;;
20697;SDS011;10508;50.956;4.640;2023-03-12T08:07:41;17.80;;;6.40;;
20697;SDS011;10508;50.956;4.640;2023-03-12T08:10:07;20.27;;;6.40;;
20697;SDS011;10508;50.956;4.640;2023-03-12T08:12:34;21.13;;;7.40;;
20697;SDS011;10508;50.956;4.640;2023-03-12T08:15:01;13.35;;;6.85;;
20697;SDS011;10508;50.956;4.640;2023-03-12T08:17:30;18.33;;;6.53;;
20697;SDS011;10508;50.956;4.640;2023-03-12T08:19:56;23.35;;;8.05;;
20697;SDS011;10508;50.956;4.640;2023-03-12T08:22:21;25.38;;;8.05;;
20697;SDS011;10508;50.956;4.640;2023-03-12T08:24:47;30.08;;;8.80;;
20697;SDS011;10508;50.956;4.640;2023-03-12T08:27:13;30.00;;;8.25;;
20697;SDS011;10508;50.956;4.640;2023-03-12T08:29:39;23.25;;;7.95;;
20697;SDS011;10508;50.956;4.640;2023-03-12T08:32:05;34.65;;;9.15;;
20697;SDS011;10508;50.956;4.640;2023-03-12T08:34:50;38.75;;;10.38;;
20697;SDS011;10508;50.956;4.640;2023-03-12T08:37:16;41.83;;;9.43;;
20697;SDS011;10508;50.956;4.640;2023-03-12T08:39:42;32.30;;;8.73;;
20697;SDS011;10508;50.956;4.640;2023-03-12T08:42:07;46.22;;;9.57;;
20697;SDS011;10508;50.956;4.640;2023-03-12T08:44:33;31.45;;;9.07;;
20697;SDS011;10508;50.956;4.640;2023-03-12T08:46:59;25.60;;;8.32;;
20697;SDS011;10508;50.956;4.640;2023-03-12T08:49:24;51.55;;;10.38;;
20697;SDS011;10508;50.956;4.640;2023-03-12T08:51:50;37.13;;;9.32;;
20697;SDS011;10508;50.956;4.640;2023-03-12T08:54:17;65.07;;;11.15;;
20697;SDS011;10508;50.956;4.640;2023-03-12T08:56:43;48.13;;;8.77;;
20697;SDS011;10508;50.956;4.640;2023-03-12T08:59:11;39.95;;;9.02;;
20697;SDS011;10508;50.956;4.640;2023-03-12T09:01:37;45.95;;;10.65;;
20697;SDS011;10508;50.956;4.640;2023-03-12T09:04:06;52.05;;;9.50;;
20697;SDS011;10508;50.956;4.640;2023-03-12T09:06:32;45.08;;;9.20;;
20697;SDS011;10508;50.956;4.640;2023-03-12T09:08:59;54.15;;;10.10;;
20697;SDS011;10508;50.956;4.640;2023-03-12T09:11:29;50.63;;;10.55;;
20697;SDS011;10508;50.956;4.640;2023-03-12T09:13:55;54.08;;;10.43;;
20697;SDS011;10508;50.956;4.640;2023-03-12T09:16:21;34.42;;;8.30;;
20697;SDS011;10508;50.956;4.640;2023-03-12T09:18:47;41.75;;;9.25;;
20697;SDS011;10508;50.956;4.640;2023-03-12T09:21:13;36.97;;;7.90;;
20697;SDS011;10508;50.956;4.640;2023-03-12T09:23:38;35.03;;;7.25;;
20697;SDS011;10508;50.956;4.640;2023-03-12T09:26:07;40.08;;;7.78;;
20697;SDS011;10508;50.956;4.640;2023-03-12T09:28:35;39.95;;;6.97;;
20697;SDS011;10508;50.956;4.640;2023-03-12T09:31:01;29.58;;;6.50;;
20697;SDS011;10508;50.956;4.640;2023-03-12T09:33:28;41.58;;;8.45;;
20697;SDS011;10508;50.956;4.640;2023-03-12T09:35:54;37.10;;;7.18;;
20697;SDS011;10508;50.956;4.640;2023-03-12T09:38:24;25.02;;;5.93;;
20697;SDS011;10508;50.956;4.640;2023-03-12T09:40:51;39.90;;;7.03;;
20697;SDS011;10508;50.956;4.640;2023-03-12T09:45:47;38.15;;;6.95;;
20697;SDS011;10508;50.956;4.640;2023-03-12T09:48:18;49.55;;;8.43;;
20697;SDS011;10508;50.956;4.640;2023-03-12T09:51:13;32.95;;;6.25;;
20697;SDS011;10508;50.956;4.640;2023-03-12T09:53:48;23.50;;;4.65;;
20697;SDS011;10508;50.956;4.640;2023-03-12T09:56:17;30.88;;;6.35;;
20697;SDS011;10508;50.956;4.640;2023-03-12T09:58:45;28.73;;;5.78;;
20697;SDS011;10508;50.956;4.640;2023-03-12T10:03:46;29.92;;;5.80;;
20697;SDS011;10508;50.956;4.640;2023-03-12T10:06:19;31.40;;;5.28;;
20697;SDS011;10508;50.956;4.640;2023-03-12T10:11:30;38.10;;;5.25;;
20697;SDS011;10508;50.956;4.640;2023-03-12T10:14:07;28.83;;;4.80;;
20697;SDS011;10508;50.956;4.640;2023-03-12T10:19:50;39.42;;;5.43;;
20697;SDS011;10508;50.956;4.640;2023-03-12T10:25:19;27.15;;;4.22;;
20697;SDS011;10508;50.956;4.640;2023-03-12T10:27:46;24.50;;;3.95;;
20697;SDS011;10508;50.956;4.640;2023-03-12T10:30:17;23.98;;;5.13;;
20697;SDS011;10508;50.956;4.640;2023-03-12T10:32:52;36.28;;;5.00;;
20697;SDS011;10508;50.956;4.640;2023-03-12T10:35:22;31.70;;;4.40;;
20697;SDS011;10508;50.956;4.640;2023-03-12T10:37:54;37.20;;;4.30;;
20697;SDS011;10508;50.956;4.640;2023-03-12T10:40:27;29.27;;;4.50;;
20697;SDS011;10508;50.956;4.640;2023-03-12T10:42:53;39.33;;;4.10;;
20697;SDS011;10508;50.956;4.640;2023-03-12T10:45:29;28.42;;;5.10;;
20697;SDS011;10508;50.956;4.640;2023-03-12T10:48:04;26.75;;;3.53;;
20697;SDS011;10508;50.956;4.640;2023-03-12T10:53:42;36.85;;;4.80;;
20697;SDS011;10508;50.956;4.640;2023-03-12T10:58:57;36.28;;;5.55;;
20697;SDS011;10508;50.956;4.640;2023-03-12T11:01:43;25.55;;;4.20;;
20697;SDS011;10508;50.956;4.640;2023-03-12T11:10:17;29.52;;;3.72;;
20697;SDS011;10508;50.956;4.640;2023-03-12T11:13:05;32.03;;;4.63;;
20697;SDS011;10508;50.956;4.640;2023-03-12T11:15:59;24.40;;;3.10;;
20697;SDS011;10508;50.956;4.640;2023-03-12T11:21:11;34.00;;;4.05;;
20697;SDS011;10508;50.956;4.640;2023-03-12T11:24:21;35.65;;;4.80;;
20697;SDS011;10508;50.956;4.640;2023-03-12T11:26:36;22.80;;;3.50;;
20697;SDS011;10508;50.956;4.640;2023-03-12T11:29:09;29.40;;;4.15;;
20697;SDS011;10508;50.956;4.640;2023-03-12T11:31:55;17.40;;;3.28;;
20697;SDS011;10508;50.956;4.640;2023-03-12T11:34:33;34.97;;;4.97;;
20697;SDS011;10508;50.956;4.640;2023-03-12T11:51:18;27.45;;;5.22;;
20697;SDS011;10508;50.956;4.640;2023-03-12T11:56:40;31.50;;;3.78;;
20697;SDS011;10508;50.956;4.640;2023-03-12T12:02:23;18.67;;;3.65;;
20697;SDS011;10508;50.956;4.640;2023-03-12T12:10:20;29.83;;;5.60;;
20697;SDS011;10508;50.956;4.640;2023-03-12T12:15:49;31.88;;;4.80;;
20697;SDS011;10508;50.956;4.640;2023-03-12T12:19:03;32.72;;;4.90;;
20697;SDS011;10508;50.956;4.640;2023-03-12T12:26:22;25.92;;;4.15;;
20697;SDS011;10508;50.956;4.640;2023-03-12T12:29:31;28.48;;;4.80;;
20697;SDS011;10508;50.956;4.640;2023-03-12T12:32:03;31.92;;;5.78;;
20697;SDS011;10508;50.956;4.640;2023-03-12T12:34:36;23.50;;;4.82;;
20697;SDS011;10508;50.956;4.640;2023-03-12T12:37:30;26.83;;;4.70;;
20697;SDS011;10508;50.956;4.640;2023-03-12T12:40:17;26.02;;;4.10;;
20697;SDS011;10508;50.956;4.640;2023-03-12T12:43:03;30.45;;;4.18;;
20697;SDS011;10508;50.956;4.640;2023-03-12T12:45:30;30.05;;;4.65;;
20697;SDS011;10508;50.956;4.640;2023-03-12T12:48:01;20.52;;;3.28;;
20697;SDS011;10508;50.956;4.640;2023-03-12T12:50:34;47.50;;;4.75;;
20697;SDS011;10508;50.956;4.640;2023-03-12T12:53:13;24.58;;;4.13;;
20697;SDS011;10508;50.956;4.640;2023-03-12T12:55:43;30.27;;;5.13;;
20697;SDS011;10508;50.956;4.640;2023-03-12T12:58:25;27.83;;;4.00;;
20697;SDS011;10508;50.956;4.640;2023-03-12T13:01:13;31.30;;;3.42;;
20697;SDS011;10508;50.956;4.640;2023-03-12T13:03:40;30.83;;;4.15;;
20697;SDS011;10508;50.956;4.640;2023-03-12T13:06:07;27.70;;;3.58;;
20697;SDS011;10508;50.956;4.640;2023-03-12T13:09:19;21.55;;;3.20;;
20697;SDS011;10508;50.956;4.640;2023-03-12T13:11:24;23.45;;;3.47;;
20697;SDS011;10508;50.956;4.640;2023-03-12T13:16:31;24.02;;;3.70;;
20697;SDS011;10508;50.956;4.640;2023-03-12T13:29:48;24.80;;;3.10;;
20697;SDS011;10508;50.956;4.640;2023-03-12T13:34:58;21.10;;;3.20;;
20697;SDS011;10508;50.956;4.640;2023-03-12T13:37:28;20.40;;;2.88;;
20697;SDS011;10508;50.956;4.640;2023-03-12T13:43:12;23.65;;;4.40;;
20697;SDS011;10508;50.956;4.640;2023-03-12T13:48:18;16.52;;;3.33;;
20697;SDS011;10508;50.956;4.640;2023-03-12T13:50:50;22.05;;;3.50;;
20697;SDS011;10508;50.956;4.640;2023-03-12T13:53:21;24.33;;;3.42;;
20697;SDS011;10508;50.956;4.640;2023-03-12T13:56:02;31.52;;;3.35;;
20697;SDS011;10508;50.956;4.640;2023-03-12T13:58:40;18.83;;;3.78;;
20697;SDS011;10508;50.956;4.640;2023-03-12T14:01:13;20.88;;;3.40;;
20697;SDS011;10508;50.956;4.640;2023-03-12T14:03:47;30.08;;;4.13;;
20697;SDS011;10508;50.956;4.640;2023-03-12T14:06:17;19.52;;;3.47;;
20697;SDS011;10508;50.956;4.640;2023-03-12T14:09:03;20.58;;;3.30;;
20697;SDS011;10508;50.956;4.640;2023-03-12T14:11:42;21.15;;;3.92;;
20697;SDS011;10508;50.956;4.640;2023-03-12T14:15:09;17.65;;;2.97;;
20697;SDS011;10508;50.956;4.640;2023-03-12T14:17:09;22.48;;;3.30;;
20697;SDS011;10508;50.956;4.640;2023-03-12T14:19:41;27.83;;;3.80;;
20697;SDS011;10508;50.956;4.640;2023-03-12T14:22:10;27.80;;;3.33;;
20697;SDS011;10508;50.956;4.640;2023-03-12T14:24:39;29.40;;;4.10;;
20697;SDS011;10508;50.956;4.640;2023-03-12T14:27:16;22.08;;;3.67;;
20697;SDS011;10508;50.956;4.640;2023-03-12T14:29:45;28.55;;;3.83;;
20697;SDS011;10508;50.956;4.640;2023-03-12T14:32:18;30.15;;;5.47;;
20697;SDS011;10508;50.956;4.640;2023-03-12T14:34:47;37.28;;;4.65;;
20697;SDS011;10508;50.956;4.640;2023-03-12T14:39:51;24.75;;;3.03;;
20697;SDS011;10508;50.956;4.640;2023-03-12T14:42:26;22.05;;;3.72;;
20697;SDS011;10508;50.956;4.640;2023-03-12T14:44:57;25.23;;;3.47;;
20697;SDS011;10508;50.956;4.640;2023-03-12T14:47:25;25.42;;;3.42;;
20697;SDS011;10508;50.956;4.640;2023-03-12T14:49:53;25.52;;;3.92;;
20697;SDS011;10508;50.956;4.640;2023-03-12T14:52:27;22.77;;;3.78;;
20697;SDS011;10508;50.956;4.640;2023-03-12T14:54:58;27.35;;;3.97;;
20697;SDS011;10508;50.956;4.640;2023-03-12T14:57:25;23.58;;;3.15;;
20697;SDS011;10508;50.956;4.640;2023-03-12T14:59:58;19.27;;;3.00;;
20697;SDS011;10508;50.956;4.640;2023-03-12T15:02:25;18.90;;;3.97;;
20697;SDS011;10508;50.956;4.640;2023-03-12T15:04:56;30.15;;;4.13;;
20697;SDS011;10508;50.956;4.640;2023-03-12T15:07:26;19.05;;;2.83;;
20697;SDS011;10508;50.956;4.640;2023-03-12T15:09:59;18.75;;;3.28;;
20697;SDS011;10508;50.956;4.640;2023-03-12T15:12:30;21.15;;;2.92;;
20697;SDS011;10508;50.956;4.640;2023-03-12T15:15:19;15.93;;;3.08;;
20697;SDS011;10508;50.956;4.640;2023-03-12T15:17:54;27.35;;;3.63;;
20697;SDS011;10508;50.956;4.640;2023-03-12T15:20:20;19.13;;;2.80;;
20697;SDS011;10508;50.956;4.640;2023-03-12T15:22:48;19.00;;;3.63;;
20697;SDS011;10508;50.956;4.640;2023-03-12T15:30:35;27.95;;;3.72;;
20697;SDS011;10508;50.956;4.640;2023-03-12T15:35:41;21.05;;;2.80;;
20697;SDS011;10508;50.956;4.640;2023-03-12T15:38:24;24.38;;;3.47;;
20697;SDS011;10508;50.956;4.640;2023-03-12T15:40:50;18.85;;;3.08;;
20697;SDS011;10508;50.956;4.640;2023-03-12T15:43:20;28.92;;;3.22;;
20697;SDS011;10508;50.956;4.640;2023-03-12T15:45:47;15.40;;;2.25;;
20697;SDS011;10508;50.956;4.640;2023-03-12T15:48:37;27.33;;;3.13;;
20697;SDS011;10508;50.956;4.640;2023-03-12T15:51:14;27.35;;;2.97;;
20697;SDS011;10508;50.956;4.640;2023-03-12T15:54:03;20.90;;;3.60;;
20697;SDS011;10508;50.956;4.640;2023-03-12T15:56:44;19.25;;;3.70;;
20697;SDS011;10508;50.956;4.640;2023-03-12T16:01:50;11.48;;;2.58;;
20697;SDS011;10508;50.956;4.640;2023-03-12T16:04:20;24.42;;;3.05;;
20697;SDS011;10508;50.956;4.640;2023-03-12T16:06:47;15.55;;;2.92;;
20697;SDS011;10508;50.956;4.640;2023-03-12T16:09:16;17.15;;;3.58;;
20697;SDS011;10508;50.956;4.640;2023-03-12T16:11:48;16.20;;;2.22;;
20697;SDS011;10508;50.956;4.640;2023-03-12T16:14:19;21.00;;;2.85;;
20697;SDS011;10508;50.956;4.640;2023-03-12T16:16:53;24.77;;;4.00;;
20697;SDS011;10508;50.956;4.640;2023-03-12T16:19:20;16.88;;;2.45;;
20697;SDS011;10508;50.956;4.640;2023-03-12T16:21:46;17.52;;;3.67;;
20697;SDS011;10508;50.956;4.640;2023-03-12T16:24:13;25.90;;;4.10;;
20697;SDS011;10508;50.956;4.640;2023-03-12T16:26:49;20.83;;;2.78;;
20697;SDS011;10508;50.956;4.640;2023-03-12T16:29:22;14.95;;;2.80;;
20697;SDS011;10508;50.956;4.640;2023-03-12T16:31:57;17.02;;;2.90;;
20697;SDS011;10508;50.956;4.640;2023-03-12T16:34:23;12.52;;;2.67;;
20697;SDS011;10508;50.956;4.640;2023-03-12T16:36:49;21.17;;;2.78;;
20697;SDS011;10508;50.956;4.640;2023-03-12T16:39:15;27.20;;;3.00;;
20697;SDS011;10508;50.956;4.640;2023-03-12T16:41:40;36.92;;;5.35;;
20697;SDS011;10508;50.956;4.640;2023-03-12T16:44:06;27.63;;;3.80;;